TimeCDT,TemperatureF,Dew PointF,Humidity,Sea Level PressureIn,VisibilityMPH,Wind Direction,Wind SpeedMPH,Gust SpeedMPH,PrecipitationIn,Events,Conditions,WindDirDegrees,DateUTC
12:53 AM,73.9,69.1,85,29.90,10.0,SE,9.2,-,N/A,,Partly Cloudy,140,2013-05-30 05:53:00
1:12 AM,73.4,69.8,88,29.91,10.0,SE,11.5,-,N/A,,Mostly Cloudy,140,2013-05-30 06:12:00
1:37 AM,73.4,69.8,88,29.90,10.0,SE,10.4,17.3,N/A,,Mostly Cloudy,140,2013-05-30 06:37:00
1:53 AM,73.9,70.0,87,29.89,10.0,SE,10.4,-,N/A,,Partly Cloudy,140,2013-05-30 06:53:00
2:37 AM,73.4,69.8,88,29.89,10.0,SSE,9.2,-,N/A,,Mostly Cloudy,150,2013-05-30 07:37:00
2:53 AM,73.0,70.0,90,29.88,10.0,SSE,10.4,-,N/A,,Overcast,150,2013-05-30 07:53:00
3:53 AM,73.0,70.0,90,29.89,10.0,South,5.8,-,N/A,,Overcast,170,2013-05-30 08:53:00
4:09 AM,73.4,69.8,88,29.90,10.0,SSE,8.1,-,N/A,,Mostly Cloudy,160,2013-05-30 09:09:00
4:44 AM,71.6,69.8,94,29.90,10.0,SSE,8.1,-,N/A,,Scattered Clouds,150,2013-05-30 09:44:00
4:53 AM,72.0,70.0,93,29.89,10.0,SE,6.9,-,N/A,,Mostly Cloudy,140,2013-05-30 09:53:00
5:01 AM,71.6,69.8,94,29.90,10.0,SSE,5.8,-,N/A,,Partly Cloudy,150,2013-05-30 10:01:00
5:42 AM,71.6,69.8,94,29.91,10.0,SE,5.8,-,N/A,,Mostly Cloudy,140,2013-05-30 10:42:00
5:53 AM,72.0,70.0,93,29.90,10.0,SE,5.8,-,N/A,,Scattered Clouds,140,2013-05-30 10:53:00
6:42 AM,71.6,69.8,94,29.92,10.0,SE,5.8,-,N/A,,Mostly Cloudy,130,2013-05-30 11:42:00
6:53 AM,72.0,70.0,93,29.91,10.0,SE,5.8,-,N/A,,Mostly Cloudy,130,2013-05-30 11:53:00
7:09 AM,73.4,69.8,88,29.93,10.0,SE,10.4,17.3,N/A,,Overcast,130,2013-05-30 12:09:00
7:53 AM,73.9,71.1,91,29.92,10.0,SE,10.4,-,N/A,,Overcast,140,2013-05-30 12:53:00
8:46 AM,77.0,71.6,83,29.94,10.0,SSE,12.7,17.3,N/A,,Overcast,160,2013-05-30 13:46:00
8:53 AM,75.9,71.1,85,29.94,10.0,South,12.7,18.4,N/A,,Overcast,170,2013-05-30 13:53:00
9:34 AM,77.0,69.8,78,29.96,10.0,SSE,8.1,-,N/A,,Overcast,160,2013-05-30 14:34:00
9:53 AM,77.0,71.1,82,29.95,10.0,SSE,8.1,-,N/A,,Mostly Cloudy,150,2013-05-30 14:53:00
10:53 AM,79.0,71.1,77,29.94,10.0,SE,11.5,-,N/A,,Partly Cloudy,140,2013-05-30 15:53:00
11:53 AM,81.0,70.0,69,29.94,10.0,SE,13.8,17.3,N/A,,Overcast,140,2013-05-30 16:53:00
12:53 PM,82.9,72.0,69,29.93,10.0,SSE,10.4,17.3,0.00,,Overcast,160,2013-05-30 17:53:00
1:53 PM,82.9,72.0,69,29.90,10.0,SE,11.5,-,0.00,,Mostly Cloudy,140,2013-05-30 18:53:00
2:37 PM,80.6,73.4,79,29.90,7.0,SSE,9.2,-,0.00,Rain-Thunderstorm,Light Rain,160,2013-05-30 19:37:00
2:53 PM,77.0,73.0,88,29.88,4.0,South,3.5,-,0.02,Rain-Thunderstorm,Light Thunderstorms and Rain,170,2013-05-30 19:53:00
3:15 PM,80.6,73.4,79,29.87,10.0,SE,5.8,-,0.00,,Scattered Clouds,130,2013-05-30 20:15:00
3:51 PM,82.4,73.4,74,29.86,10.0,SSE,10.4,-,0.00,Thunderstorm,Partly Cloudy,150,2013-05-30 20:51:00
3:53 PM,82.9,73.0,72,29.85,10.0,SSE,10.4,-,0.00,Thunderstorm,Thunderstorm,150,2013-05-30 20:53:00
4:18 PM,77.0,73.4,89,29.85,4.0,South,6.9,-,0.04,Rain,Light Rain,170,2013-05-30 21:18:00
4:53 PM,79.0,75.0,88,29.83,10.0,South,6.9,-,0.04,,Clear,180,2013-05-30 21:53:00
5:53 PM,82.0,72.0,71,29.81,10.0,SSE,16.1,23.0,N/A,,Clear,150,2013-05-30 22:53:00
6:21 PM,80.6,71.6,74,29.82,10.0,SSE,9.2,-,N/A,Thunderstorm,Partly Cloudy,150,2013-05-30 23:21:00
6:36 PM,80.6,73.4,79,29.83,10.0,SSE,6.9,-,N/A,,Mostly Cloudy,150,2013-05-30 23:36:00
6:53 PM,81.0,73.0,77,29.83,10.0,SSE,11.5,18.4,N/A,,Mostly Cloudy,150,2013-05-30 23:53:00
7:53 PM,73.9,70.0,87,29.84,10.0,SE,6.9,-,0.03,,Scattered Clouds,140,2013-05-31 00:53:00
8:53 PM,73.0,70.0,90,29.88,10.0,SSE,6.9,-,N/A,,Scattered Clouds,150,2013-05-31 01:53:00
9:53 PM,75.0,72.0,90,29.88,10.0,SE,10.4,-,N/A,,Scattered Clouds,140,2013-05-31 02:53:00
10:53 PM,75.0,73.0,94,29.86,10.0,SSE,10.4,-,N/A,,Clear,150,2013-05-31 03:53:00
11:53 PM,75.9,73.0,91,29.89,10.0,SSE,9.2,18.4,N/A,,Clear,160,2013-05-31 04:53:00